createdAt,value
2022-08-19T00:00:15.725Z,15.10
2022-08-19T00:03:04.846Z,14.80
2022-08-19T00:05:33.110Z,14.70
2022-08-19T00:08:01.025Z,15.30
2022-08-19T00:10:28.991Z,17.20
2022-08-19T00:12:57.242Z,15.60
2022-08-19T00:15:25.151Z,14.30
2022-08-19T00:17:53.025Z,18.90
2022-08-19T00:20:22.678Z,14.80
2022-08-19T00:22:51.246Z,14.30
2022-08-19T00:25:30.058Z,13.70
2022-08-19T00:28:00.476Z,12.80
2022-08-19T00:30:31.430Z,18.00
2022-08-19T00:33:00.474Z,14.70
2022-08-19T00:35:28.469Z,17.80
2022-08-19T00:37:57.253Z,14.70
2022-08-19T00:40:26.211Z,15.10
2022-08-19T00:42:55.010Z,15.00
2022-08-19T00:45:31.766Z,12.30
2022-08-19T00:48:05.299Z,15.60
2022-08-19T00:50:51.931Z,15.30
2022-08-19T00:53:27.528Z,14.30
2022-08-19T00:56:00.510Z,21.30
2022-08-19T00:58:34.731Z,25.30
2022-08-19T01:01:05.555Z,17.90
2022-08-19T01:03:57.001Z,14.90
2022-08-19T01:06:22.384Z,15.50
2022-08-19T01:08:50.380Z,16.00
2022-08-19T01:11:18.368Z,14.30
2022-08-19T01:13:49.995Z,14.60
2022-08-19T01:16:23.557Z,17.80
2022-08-19T01:18:51.832Z,15.80
2022-08-19T01:21:33.579Z,13.90
2022-08-19T01:24:01.856Z,16.40
2022-08-19T01:26:31.278Z,15.20
2022-08-19T01:29:02.213Z,17.80
2022-08-19T01:31:33.434Z,15.20
2022-08-19T01:34:03.357Z,14.60
2022-08-19T01:36:50.170Z,14.50
2022-08-19T01:39:25.232Z,15.20
2022-08-19T01:41:56.198Z,15.90
2022-08-19T01:44:25.298Z,18.10
2022-08-19T01:46:53.534Z,14.40
2022-08-19T01:49:24.720Z,14.60
2022-08-19T01:51:55.093Z,17.50
2022-08-19T01:54:27.585Z,15.50
2022-08-19T01:57:12.121Z,17.00
2022-08-19T01:59:43.939Z,16.20
2022-08-19T02:02:11.834Z,15.20
2022-08-19T02:04:39.871Z,14.10
2022-08-19T02:07:09.214Z,15.00
2022-08-19T02:09:37.415Z,14.60
2022-08-19T02:12:08.696Z,16.50
2022-08-19T02:14:37.867Z,15.70
2022-08-19T02:17:05.762Z,19.10
2022-08-19T02:19:34.120Z,17.20
2022-08-19T02:22:02.367Z,16.50
2022-08-19T02:24:30.213Z,15.20
2022-08-19T02:26:58.523Z,16.70
2022-08-19T02:29:26.475Z,16.00
2022-08-19T02:31:54.648Z,15.00
2022-08-19T02:34:22.874Z,15.10
2022-08-19T02:36:51.834Z,16.30
2022-08-19T02:39:20.625Z,16.10
2022-08-19T02:41:48.449Z,15.10
2022-08-19T02:44:30.929Z,14.60
2022-08-19T02:46:59.721Z,15.40
2022-08-19T02:49:27.538Z,15.50
2022-08-19T02:51:55.459Z,15.00
2022-08-19T02:54:23.313Z,14.60
2022-08-19T02:56:51.224Z,14.30
2022-08-19T02:59:20.316Z,15.60
2022-08-19T03:01:51.200Z,13.70
2022-08-19T03:04:20.572Z,14.20
2022-08-19T03:06:48.815Z,15.60
2022-08-19T03:09:20.856Z,15.10
2022-08-19T03:11:49.351Z,14.70
2022-08-19T03:14:20.720Z,24.00
2022-08-19T03:16:53.506Z,16.40
2022-08-19T03:19:25.075Z,15.10
2022-08-19T03:21:53.683Z,13.30
2022-08-19T03:24:22.483Z,12.30
2022-08-19T03:26:58.412Z,15.10
2022-08-19T03:29:30.687Z,18.40
2022-08-19T03:32:02.075Z,14.50
2022-08-19T03:34:37.349Z,15.40
2022-08-19T03:37:15.440Z,14.00
2022-08-19T03:39:43.654Z,14.40
2022-08-19T03:42:33.112Z,14.60
2022-08-19T03:45:00.571Z,16.50
2022-08-19T03:47:28.371Z,15.60
2022-08-19T03:49:56.634Z,16.30
2022-08-19T03:52:24.488Z,15.10
2022-08-19T03:54:52.890Z,16.40
2022-08-19T03:57:20.691Z,19.00
2022-08-19T03:59:52.289Z,16.50
2022-08-19T04:02:20.229Z,14.00
2022-08-19T04:04:48.256Z,16.30
2022-08-19T04:07:17.406Z,15.10
2022-08-19T04:09:45.397Z,14.50
2022-08-19T04:12:13.271Z,15.50
2022-08-19T04:14:41.083Z,17.40
2022-08-19T04:17:08.948Z,24.20
2022-08-19T04:19:38.177Z,24.40
2022-08-19T04:22:06.580Z,22.00
2022-08-19T04:24:36.130Z,22.20
2022-08-19T04:27:07.235Z,26.70
2022-08-19T04:29:35.140Z,18.80
2022-08-19T04:32:09.459Z,19.70
2022-08-19T04:35:01.478Z,20.30
2022-08-19T04:37:34.771Z,20.30
2022-08-19T04:40:26.189Z,17.70
2022-08-19T04:42:55.382Z,21.40
2022-08-19T04:45:23.737Z,22.40
2022-08-19T04:48:26.932Z,28.30
2022-08-19T04:50:49.715Z,25.80
2022-08-19T04:53:18.209Z,24.10
2022-08-19T04:55:46.017Z,23.40
2022-08-19T04:58:13.951Z,18.80
2022-08-19T05:00:42.574Z,20.50
2022-08-19T05:03:11.557Z,18.10
2022-08-19T05:05:45.285Z,19.50
2022-08-19T05:08:19.702Z,23.90
2022-08-19T05:10:59.590Z,19.90
2022-08-19T05:13:28.071Z,18.20
2022-08-19T05:15:59.392Z,19.10
2022-08-19T05:19:06.221Z,19.80
2022-08-19T05:21:54.607Z,20.00
2022-08-19T05:24:24.022Z,19.80
2022-08-19T05:26:54.288Z,17.00
2022-08-19T05:29:22.572Z,18.50
2022-08-19T05:31:52.524Z,16.60
2022-08-19T05:34:27.052Z,16.50
2022-08-19T05:36:59.622Z,18.00
2022-08-19T05:39:30.602Z,15.60
2022-08-19T05:42:04.638Z,15.70
2022-08-19T05:44:36.225Z,17.10
2022-08-19T05:47:07.778Z,15.60
2022-08-19T05:49:37.996Z,17.50
2022-08-19T05:52:12.170Z,16.10
2022-08-19T05:54:43.714Z,15.10
2022-08-19T05:57:11.781Z,15.10
2022-08-19T05:59:41.457Z,16.50
2022-08-19T06:02:09.330Z,14.10
2022-08-19T06:04:37.281Z,15.30
2022-08-19T06:07:11.959Z,15.60
2022-08-19T06:09:43.645Z,14.10
2022-08-19T06:12:34.248Z,13.40
2022-08-19T06:15:07.498Z,13.60
2022-08-19T06:17:36.335Z,14.80
2022-08-19T06:20:08.670Z,14.20
2022-08-19T06:22:43.170Z,15.20
2022-08-19T06:25:12.632Z,14.60
2022-08-19T06:27:58.520Z,14.70
2022-08-19T06:30:29.855Z,13.60
2022-08-19T06:32:57.790Z,13.50
2022-08-19T06:35:26.473Z,14.70
2022-08-19T06:37:54.983Z,14.20
2022-08-19T06:40:23.602Z,16.70
2022-08-19T06:42:54.887Z,13.80
2022-08-19T06:45:34.451Z,13.00
2022-08-19T06:48:04.290Z,14.30
2022-08-19T06:50:32.028Z,15.80
2022-08-19T06:53:03.597Z,13.00
2022-08-19T06:55:33.460Z,17.30
2022-08-19T06:58:05.795Z,14.20
2022-08-19T07:00:35.081Z,14.20
2022-08-19T07:03:07.705Z,16.40
2022-08-19T07:05:45.579Z,13.70
2022-08-19T07:08:14.994Z,15.60
2022-08-19T07:10:47.249Z,14.10
2022-08-19T07:13:15.363Z,13.40
2022-08-19T07:15:43.394Z,14.40
2022-08-19T07:18:11.747Z,13.50
2022-08-19T07:20:42.847Z,14.00
2022-08-19T07:25:32.478Z,12.30
2022-08-19T07:28:29.122Z,13.30
2022-08-19T07:31:44.934Z,12.00
2022-08-19T07:34:43.040Z,12.80
2022-08-19T07:37:57.340Z,12.00
2022-08-19T07:40:36.469Z,13.00
2022-08-19T07:43:12.335Z,14.50
2022-08-19T07:45:45.761Z,12.50
2022-08-19T07:48:18.476Z,14.80
2022-08-19T07:50:46.698Z,13.70
2022-08-19T07:53:16.182Z,15.90
2022-08-19T07:55:44.239Z,15.00
2022-08-19T07:58:16.891Z,12.90
2022-08-19T08:00:47.880Z,12.40
2022-08-19T08:03:20.230Z,12.80
2022-08-19T08:06:06.827Z,12.00
2022-08-19T08:08:53.379Z,13.80
2022-08-19T08:11:23.866Z,14.10
2022-08-19T08:14:01.433Z,12.20
2022-08-19T08:16:47.370Z,13.20
2022-08-19T08:19:25.323Z,12.50
2022-08-19T08:22:15.335Z,12.90
2022-08-19T08:24:48.918Z,13.00
2022-08-19T08:27:17.296Z,12.30
2022-08-19T08:29:46.052Z,12.80
2022-08-19T08:32:14.831Z,12.70
2022-08-19T08:34:44.213Z,14.50
2022-08-19T08:37:12.361Z,12.70
2022-08-19T08:39:44.229Z,14.00
2022-08-19T08:42:28.649Z,14.00
2022-08-19T08:45:16.940Z,11.60
2022-08-19T08:47:58.603Z,12.20
2022-08-19T08:50:44.756Z,12.00
2022-08-19T08:53:27.462Z,10.60
2022-08-19T08:56:14.070Z,12.40
2022-08-19T08:59:23.895Z,14.30
2022-08-19T09:01:59.638Z,13.50
2022-08-19T09:04:33.011Z,13.70
2022-08-19T09:07:47.296Z,11.30
2022-08-19T09:10:35.813Z,9.10
2022-08-19T09:13:43.150Z,14.30
2022-08-19T09:16:39.432Z,9.30
2022-08-19T09:19:39.997Z,11.70
2022-08-19T09:22:36.516Z,12.20
2022-08-19T09:31:28.784Z,10.60
2022-08-19T09:36:36.218Z,13.70
2022-08-19T09:39:36.260Z,11.60
2022-08-19T09:42:30.254Z,10.30
2022-08-19T09:45:48.123Z,15.70
2022-08-19T09:48:36.666Z,12.70
2022-08-19T09:51:12.560Z,10.00
2022-08-19T09:53:42.937Z,12.00
2022-08-19T09:56:13.098Z,9.10
2022-08-19T09:58:42.102Z,9.40
2022-08-19T10:01:11.860Z,9.30
2022-08-19T10:03:39.869Z,10.30
2022-08-19T10:06:15.233Z,8.40
2022-08-19T10:08:50.392Z,11.10
2022-08-19T10:11:28.710Z,10.40
2022-08-19T10:14:15.129Z,9.50
2022-08-19T10:16:45.257Z,9.20
2022-08-19T10:19:25.427Z,12.20
2022-08-19T10:22:00.197Z,11.50
2022-08-19T10:24:29.294Z,11.10
2022-08-19T10:27:01.528Z,10.40
2022-08-19T10:29:46.434Z,10.20
2022-08-19T10:32:34.049Z,10.10
2022-08-19T10:39:17.241Z,10.40
2022-08-19T10:41:59.116Z,8.80
2022-08-19T10:44:36.765Z,11.10
2022-08-19T10:47:57.884Z,11.70
2022-08-19T10:54:01.260Z,11.20
2022-08-19T10:56:51.878Z,11.40
2022-08-19T10:59:33.786Z,11.20
2022-08-19T11:02:08.203Z,11.50
2022-08-19T11:04:36.776Z,10.80
2022-08-19T11:07:07.106Z,13.30
2022-08-19T11:09:52.387Z,9.50
2022-08-19T11:12:25.375Z,11.60
2022-08-19T11:14:54.430Z,8.20
2022-08-19T11:17:24.916Z,13.80
2022-08-19T11:19:52.716Z,12.00
2022-08-19T11:22:21.194Z,10.80
2022-08-19T11:24:49.121Z,14.10
2022-08-19T11:27:17.084Z,9.70
2022-08-19T11:29:52.006Z,11.10
2022-08-19T11:32:25.775Z,10.80
2022-08-19T11:35:24.305Z,10.40
2022-08-19T11:37:53.454Z,12.50
2022-08-19T11:44:16.168Z,11.60
2022-08-19T11:46:47.802Z,11.10
2022-08-19T11:49:22.689Z,11.10
2022-08-19T11:51:52.029Z,9.00
2022-08-19T11:54:22.178Z,11.10
2022-08-19T11:56:50.290Z,12.80
2022-08-19T11:59:18.190Z,9.10
2022-08-19T12:01:46.195Z,10.20
2022-08-19T12:04:14.221Z,11.00
2022-08-19T12:06:42.778Z,9.80
2022-08-19T12:09:12.248Z,12.50
2022-08-19T12:11:41.607Z,11.20
2022-08-19T12:14:15.217Z,13.50
2022-08-19T12:16:51.688Z,10.30
2022-08-19T12:19:22.308Z,11.10
2022-08-19T12:21:52.554Z,11.60
2022-08-19T12:24:24.320Z,10.50
2022-08-19T12:26:53.622Z,13.40
2022-08-19T12:29:29.745Z,12.50
2022-08-19T12:32:03.989Z,12.70
2022-08-19T12:34:44.109Z,11.40
2022-08-19T12:37:18.756Z,11.00
2022-08-19T12:39:48.858Z,12.70
2022-08-19T12:42:19.342Z,11.30
2022-08-19T12:44:54.850Z,12.80
2022-08-19T13:02:13.738Z,12.10
2022-08-19T13:05:00.020Z,9.90
2022-08-19T13:07:39.173Z,13.10
2022-08-19T13:10:10.704Z,12.00
2022-08-19T13:12:40.440Z,12.00
2022-08-19T13:15:19.422Z,9.70
2022-08-19T13:18:18.827Z,8.60
2022-08-19T13:21:08.787Z,10.30
2022-08-19T13:23:45.002Z,11.70
2022-08-19T13:26:16.912Z,9.10
2022-08-19T13:29:05.037Z,10.30
2022-08-19T13:31:56.095Z,10.30
2022-08-19T13:34:36.166Z,11.50
2022-08-19T13:37:05.474Z,11.90
2022-08-19T13:39:35.937Z,10.40
2022-08-19T13:42:09.619Z,12.10
2022-08-19T13:44:40.253Z,11.50
2022-08-19T13:47:09.391Z,13.10
2022-08-19T13:49:37.658Z,16.60
2022-08-19T13:52:06.923Z,10.60
2022-08-19T13:55:08.469Z,11.30
2022-08-19T13:57:40.179Z,13.60
2022-08-19T14:00:37.783Z,10.60
2022-08-19T14:03:12.483Z,10.70
2022-08-19T14:06:14.395Z,11.70
2022-08-19T14:08:48.149Z,11.80
2022-08-19T14:11:21.124Z,12.10
2022-08-19T14:13:51.959Z,10.50
2022-08-19T14:16:25.358Z,10.90
2022-08-19T14:19:13.784Z,12.70
2022-08-19T14:21:45.652Z,11.50
2022-08-19T14:24:14.545Z,12.10
2022-08-19T14:26:44.533Z,10.40
2022-08-19T14:29:24.965Z,12.10
2022-08-19T14:32:01.896Z,10.20
2022-08-19T14:34:29.858Z,10.50
2022-08-19T14:37:00.308Z,9.90
2022-08-19T14:39:30.048Z,11.40
2022-08-19T14:42:02.393Z,11.90
2022-08-19T14:44:35.035Z,11.10
2022-08-19T14:47:03.540Z,10.10
2022-08-19T14:49:35.031Z,9.90
2022-08-19T14:52:09.685Z,11.20
2022-08-19T14:54:37.568Z,12.50
2022-08-19T14:57:05.557Z,12.70
2022-08-19T14:59:35.257Z,11.80
2022-08-19T15:02:34.246Z,10.50
2022-08-19T15:04:58.493Z,12.10
2022-08-19T15:07:29.117Z,11.30
2022-08-19T15:09:59.077Z,13.70
2022-08-19T15:12:27.022Z,10.80
2022-08-19T15:14:56.996Z,10.30
2022-08-19T15:17:43.353Z,14.80
2022-08-19T15:20:19.810Z,15.30
2022-08-19T15:22:48.200Z,12.80
2022-08-19T15:25:19.908Z,12.10
2022-08-19T15:27:48.889Z,11.50
2022-08-19T15:30:25.536Z,13.00
2022-08-19T15:32:54.773Z,9.70
2022-08-19T15:35:24.489Z,11.80
2022-08-19T15:37:56.111Z,11.70
2022-08-19T15:40:28.309Z,14.10
2022-08-19T15:42:57.083Z,11.60
2022-08-19T15:45:32.268Z,13.10
2022-08-19T15:48:06.406Z,13.00
2022-08-19T15:50:35.921Z,11.20
2022-08-19T15:53:09.443Z,14.40
2022-08-19T15:55:45.829Z,12.40
2022-08-19T15:58:34.385Z,12.40
2022-08-19T16:01:27.135Z,10.20
2022-08-19T16:04:16.862Z,11.80
2022-08-19T16:06:58.454Z,12.80
2022-08-19T16:09:31.175Z,11.10
2022-08-19T16:12:02.774Z,14.40
2022-08-19T16:14:35.421Z,14.30
2022-08-19T16:17:04.653Z,13.70
2022-08-19T16:19:33.699Z,13.30
2022-08-19T16:22:01.984Z,13.40
2022-08-19T16:24:31.038Z,13.00
2022-08-19T16:27:01.756Z,15.40
2022-08-19T16:29:34.414Z,14.40
2022-08-19T16:32:11.603Z,11.30
2022-08-19T16:34:43.145Z,12.70
2022-08-19T16:37:12.271Z,11.60
2022-08-19T16:39:41.251Z,13.60
2022-08-19T16:42:16.192Z,11.40
2022-08-19T16:44:45.981Z,11.20
2022-08-19T16:47:17.117Z,14.80
2022-08-19T16:49:52.265Z,10.40
2022-08-19T16:52:27.321Z,13.20
2022-08-19T16:54:55.398Z,12.30
2022-08-19T16:57:24.285Z,13.20
2022-08-19T16:59:53.109Z,14.60
2022-08-19T17:02:29.579Z,13.00
2022-08-19T17:04:59.327Z,11.80
2022-08-19T17:07:33.060Z,13.50
2022-08-19T17:10:05.128Z,14.30
2022-08-19T17:12:33.291Z,12.80
2022-08-19T17:15:02.962Z,11.90
2022-08-19T17:17:32.083Z,12.80
2022-08-19T17:20:03.640Z,13.60
2022-08-19T17:22:33.346Z,11.20
2022-08-19T17:25:02.205Z,12.60
2022-08-19T17:27:32.664Z,12.20
2022-08-19T17:30:04.860Z,12.50
2022-08-19T17:32:35.114Z,12.80
2022-08-19T17:35:04.941Z,14.40
2022-08-19T17:37:34.338Z,13.10
2022-08-19T17:40:09.357Z,11.40
2022-08-19T17:42:38.203Z,16.00
2022-08-19T17:45:08.125Z,12.60
2022-08-19T17:47:37.970Z,12.30
2022-08-19T17:50:10.854Z,15.90
2022-08-19T17:52:40.589Z,13.30
2022-08-19T17:55:10.604Z,12.50
2022-08-19T17:57:46.581Z,14.00
2022-08-19T18:00:17.009Z,14.50
2022-08-19T18:02:56.611Z,14.70
2022-08-19T18:05:40.800Z,14.70
2022-08-19T18:08:09.994Z,12.90
2022-08-19T18:10:39.561Z,11.60
2022-08-19T18:13:17.005Z,15.20
2022-08-19T18:15:47.685Z,14.90
2022-08-19T18:18:16.037Z,13.10
2022-08-19T18:20:45.922Z,14.10
2022-08-19T18:23:44.009Z,13.50
2022-08-19T18:26:04.026Z,11.30
2022-08-19T18:28:33.285Z,11.50
2022-08-19T18:31:03.961Z,12.70
2022-08-19T18:33:32.090Z,14.70
2022-08-19T18:36:00.295Z,13.80
2022-08-19T18:38:47.067Z,18.60
2022-08-19T18:41:37.190Z,14.90
2022-08-19T18:44:28.530Z,13.00
2022-08-19T18:47:17.653Z,15.10
2022-08-19T18:49:45.714Z,15.70
2022-08-19T18:52:17.273Z,13.70
2022-08-19T18:54:48.645Z,11.50
2022-08-19T18:57:18.638Z,15.60
2022-08-19T18:59:48.241Z,14.20
2022-08-19T19:02:22.698Z,13.70
2022-08-19T19:04:53.423Z,13.30
2022-08-19T19:07:31.570Z,14.30
2022-08-19T19:13:51.051Z,13.70
2022-08-19T19:16:38.835Z,14.50
2022-08-19T19:19:19.531Z,12.70
2022-08-19T19:21:59.183Z,13.80
2022-08-19T19:24:33.918Z,11.90
2022-08-19T19:27:08.007Z,13.60
2022-08-19T19:29:37.539Z,14.90
2022-08-19T19:32:18.516Z,17.40
2022-08-19T19:34:46.438Z,12.00
2022-08-19T19:37:14.878Z,13.10
2022-08-19T19:39:46.292Z,13.80
2022-08-19T19:42:28.175Z,15.70
2022-08-19T19:45:00.713Z,11.60
2022-08-19T19:47:30.897Z,14.80
2022-08-19T19:50:18.336Z,14.70
2022-08-19T19:52:47.263Z,16.40
2022-08-19T19:55:20.586Z,14.80
2022-08-19T19:57:49.308Z,16.80
2022-08-19T20:00:19.161Z,13.80
2022-08-19T20:02:50.420Z,13.90
2022-08-19T20:05:21.776Z,16.60
2022-08-19T20:08:12.260Z,14.00
2022-08-19T20:10:44.155Z,14.00
2022-08-19T20:13:15.798Z,17.90
2022-08-19T20:15:43.910Z,14.40
2022-08-19T20:18:14.793Z,12.30
2022-08-19T20:20:46.061Z,18.20
2022-08-19T20:23:13.963Z,10.40
2022-08-19T20:25:42.179Z,15.40
2022-08-19T20:28:12.146Z,12.80
2022-08-19T20:30:46.342Z,14.10
2022-08-19T20:33:16.870Z,11.00
2022-08-19T20:35:46.497Z,14.10
2022-08-19T20:38:17.314Z,14.50
2022-08-19T20:40:45.645Z,14.40
2022-08-19T20:43:15.327Z,14.80
2022-08-19T20:45:43.598Z,13.20
2022-08-19T20:48:12.630Z,12.30
2022-08-19T20:50:41.115Z,13.80
2022-08-19T20:53:19.848Z,14.40
2022-08-19T20:55:49.782Z,14.10
2022-08-19T20:58:21.856Z,12.30
2022-08-19T21:00:53.421Z,11.20
2022-08-19T21:03:27.024Z,15.70
2022-08-19T21:05:56.588Z,13.30
2022-08-19T21:08:27.112Z,14.60
2022-08-19T21:10:58.181Z,14.10
2022-08-19T21:13:26.172Z,17.10
2022-08-19T21:15:54.194Z,15.00
2022-08-19T21:18:27.057Z,14.50
2022-08-19T21:20:56.658Z,15.70
2022-08-19T21:23:29.297Z,16.70
2022-08-19T21:26:00.971Z,13.30
2022-08-19T21:28:35.945Z,14.60
2022-08-19T21:31:07.327Z,13.80
2022-08-19T21:33:35.261Z,13.20
2022-08-19T21:36:04.805Z,13.60
2022-08-19T21:38:33.368Z,14.70
2022-08-19T21:41:03.596Z,12.40
2022-08-19T21:43:36.653Z,14.60
2022-08-19T21:46:06.343Z,14.50
2022-08-19T21:48:35.359Z,13.80
2022-08-19T21:51:03.468Z,15.30
2022-08-19T21:53:34.003Z,15.60
2022-08-19T21:56:07.002Z,12.80
2022-08-19T21:58:38.657Z,13.10
2022-08-19T22:01:08.186Z,13.70
2022-08-19T22:03:38.831Z,12.30
2022-08-19T22:06:07.357Z,12.70
2022-08-19T22:08:36.655Z,12.30
2022-08-19T22:11:05.099Z,13.30
2022-08-19T22:13:40.527Z,14.40
2022-08-19T22:16:10.160Z,12.10
2022-08-19T22:18:38.438Z,11.80
2022-08-19T22:21:11.271Z,12.10
2022-08-19T22:23:42.083Z,11.70
2022-08-19T22:26:12.288Z,11.90
2022-08-19T22:28:40.938Z,10.80
2022-08-19T22:31:11.120Z,12.50
2022-08-19T22:33:39.503Z,13.30
2022-08-19T22:36:08.236Z,13.80
2022-08-19T22:38:38.716Z,12.40
2022-08-19T22:41:08.010Z,13.40
2022-08-19T22:43:37.721Z,14.80
2022-08-19T22:46:17.254Z,12.20
2022-08-19T22:48:47.852Z,13.20
2022-08-19T22:51:43.093Z,10.10
2022-08-19T22:54:10.971Z,12.20
2022-08-19T22:56:38.917Z,12.60
2022-08-19T22:59:08.711Z,11.40
2022-08-19T23:01:36.715Z,13.00
2022-08-19T23:04:05.831Z,15.00
2022-08-19T23:06:36.366Z,12.80
2022-08-19T23:09:08.941Z,14.30
2022-08-19T23:11:41.966Z,10.80
2022-08-19T23:14:12.712Z,12.50
2022-08-19T23:16:41.930Z,11.10
2022-08-19T23:19:11.801Z,12.20
2022-08-19T23:21:42.231Z,12.90
2022-08-19T23:24:11.956Z,12.80
2022-08-19T23:27:00.295Z,13.80
2022-08-19T23:29:47.311Z,13.90
2022-08-19T23:32:19.047Z,12.70
2022-08-19T23:34:47.693Z,12.40
2022-08-19T23:37:16.192Z,10.80
2022-08-19T23:39:45.258Z,12.30
2022-08-19T23:42:14.159Z,11.90
2022-08-19T23:44:51.538Z,11.30
2022-08-19T23:47:21.578Z,11.10
2022-08-19T23:49:50.829Z,11.40
2022-08-19T23:52:19.190Z,12.10
2022-08-19T23:54:47.169Z,12.70
2022-08-19T23:57:15.204Z,11.10
2022-08-19T23:59:45.692Z,10.70
